createdAt,value
2018-02-10T00:00:12.441Z,0.00
2018-02-10T00:01:12.434Z,0.00
2018-02-10T00:02:12.426Z,0.00
2018-02-10T00:03:12.418Z,0.00
2018-02-10T00:04:12.410Z,0.00
2018-02-10T00:05:12.404Z,0.00
2018-02-10T00:06:12.397Z,0.00
2018-02-10T00:07:12.388Z,0.00
2018-02-10T00:08:12.382Z,0.00
2018-02-10T00:09:12.375Z,0.00
2018-02-10T00:10:12.368Z,0.00
2018-02-10T00:11:12.358Z,0.00
2018-02-10T00:12:12.352Z,0.00
2018-02-10T00:13:12.346Z,0.00
2018-02-10T00:14:12.336Z,0.00
2018-02-10T00:15:12.329Z,0.00
2018-02-10T00:16:12.322Z,0.00
2018-02-10T00:17:12.333Z,0.00
2018-02-10T00:18:12.307Z,0.00
2018-02-10T00:19:12.298Z,0.00
2018-02-10T00:20:12.295Z,0.00
2018-02-10T00:21:12.284Z,0.00
2018-02-10T00:22:12.276Z,0.00
2018-02-10T00:23:12.268Z,0.00
2018-02-10T00:24:12.260Z,0.00
2018-02-10T00:25:12.255Z,0.00
2018-02-10T00:26:12.246Z,0.00
2018-02-10T00:27:12.238Z,0.00
2018-02-10T00:28:12.231Z,0.00
2018-02-10T00:29:12.223Z,0.00
2018-02-10T00:30:12.216Z,0.00
2018-02-10T00:31:12.207Z,0.00
2018-02-10T00:32:12.201Z,0.00
2018-02-10T00:33:12.193Z,0.00
2018-02-10T00:34:12.188Z,0.00
2018-02-10T00:35:12.177Z,0.00
2018-02-10T00:36:12.170Z,0.00
2018-02-10T00:37:12.162Z,0.00
2018-02-10T00:38:12.154Z,0.00
2018-02-10T00:39:12.145Z,0.00
2018-02-10T00:40:12.138Z,0.00
2018-02-10T00:41:12.130Z,0.00
2018-02-10T00:42:12.123Z,0.00
2018-02-10T00:43:12.115Z,0.00
2018-02-10T00:44:12.106Z,0.00
2018-02-10T00:45:12.100Z,0.00
2018-02-10T00:46:12.093Z,0.00
2018-02-10T00:47:12.083Z,0.00
2018-02-10T00:48:12.076Z,0.00
2018-02-10T00:49:12.068Z,0.00
2018-02-10T00:50:12.062Z,0.00
2018-02-10T00:51:12.053Z,0.00
2018-02-10T00:52:12.061Z,0.00
2018-02-10T00:53:12.038Z,0.00
2018-02-10T00:54:12.031Z,0.00
2018-02-10T00:55:12.021Z,0.00
2018-02-10T00:56:12.014Z,0.00
2018-02-10T00:57:12.006Z,0.00
2018-02-10T00:58:12.000Z,0.00
2018-02-10T00:59:11.989Z,0.00
2018-02-10T01:00:11.982Z,0.00
2018-02-10T01:01:11.976Z,0.00
2018-02-10T01:02:11.972Z,0.00
2018-02-10T01:03:11.960Z,0.00
2018-02-10T01:04:11.953Z,0.00
2018-02-10T01:05:11.945Z,0.00
2018-02-10T01:06:11.937Z,0.00
2018-02-10T01:07:11.928Z,0.00
2018-02-10T01:08:11.921Z,0.00
2018-02-10T01:09:11.914Z,0.00
2018-02-10T01:10:11.905Z,0.00
2018-02-10T01:11:11.897Z,0.00
2018-02-10T01:12:11.889Z,0.00
2018-02-10T01:13:11.883Z,0.00
2018-02-10T01:14:11.877Z,0.00
2018-02-10T01:15:11.867Z,0.00
2018-02-10T01:16:11.860Z,0.00
2018-02-10T01:17:11.852Z,0.00
2018-02-10T01:18:11.845Z,0.00
2018-02-10T01:19:11.840Z,0.00
2018-02-10T01:20:11.829Z,0.00
2018-02-10T01:21:11.820Z,0.00
2018-02-10T01:22:11.814Z,0.00
2018-02-10T01:23:11.805Z,0.00
2018-02-10T01:24:11.797Z,0.00
2018-02-10T01:25:11.791Z,0.00
2018-02-10T01:26:11.783Z,0.00
2018-02-10T01:27:11.777Z,0.00
2018-02-10T01:28:11.773Z,0.00
2018-02-10T01:29:11.759Z,0.00
2018-02-10T01:30:11.753Z,0.00
2018-02-10T01:31:11.745Z,0.00
2018-02-10T01:32:11.736Z,0.00
2018-02-10T01:33:11.729Z,0.00
2018-02-10T01:34:11.723Z,0.00
2018-02-10T01:35:11.715Z,0.00
2018-02-10T01:36:11.707Z,0.00
2018-02-10T01:37:11.700Z,0.00
2018-02-10T01:38:11.692Z,0.00
2018-02-10T01:39:11.685Z,0.00
2018-02-10T01:40:11.677Z,0.00
2018-02-10T01:41:11.674Z,0.00
2018-02-10T01:42:11.663Z,0.00
2018-02-10T01:43:11.654Z,0.00
2018-02-10T01:44:11.647Z,0.00
2018-02-10T01:45:11.659Z,0.00
2018-02-10T01:46:11.652Z,0.00
2018-02-10T01:47:11.644Z,0.00
2018-02-10T01:48:11.631Z,0.00
2018-02-10T01:49:11.622Z,0.00
2018-02-10T01:50:11.621Z,0.00
2018-02-10T01:51:11.607Z,0.00
2018-02-10T01:52:11.606Z,0.00
2018-02-10T01:53:11.591Z,0.00
2018-02-10T01:54:11.592Z,0.00
2018-02-10T01:55:11.577Z,0.00
2018-02-10T01:56:11.575Z,0.00
2018-02-10T01:57:11.560Z,0.00
2018-02-10T01:58:11.553Z,0.00
2018-02-10T01:59:11.545Z,0.00
2018-02-10T02:00:11.545Z,0.00
2018-02-10T02:01:11.537Z,0.00
2018-02-10T02:02:11.523Z,0.00
2018-02-10T02:03:11.516Z,0.00
2018-02-10T02:04:11.508Z,0.00
2018-02-10T02:05:11.500Z,0.00
2018-02-10T02:06:11.492Z,0.00
2018-02-10T02:07:11.491Z,0.00
2018-02-10T02:08:11.483Z,0.00
2018-02-10T02:09:11.469Z,0.00
2018-02-10T02:10:11.461Z,0.00
2018-02-10T02:11:11.460Z,0.00
2018-02-10T02:12:11.446Z,0.00
2018-02-10T02:13:11.445Z,0.00
2018-02-10T02:14:11.437Z,0.00
2018-02-10T02:15:11.422Z,0.00
2018-02-10T02:16:11.419Z,0.00
2018-02-10T02:17:11.407Z,0.00
2018-02-10T02:18:11.406Z,0.00
2018-02-10T02:19:11.400Z,0.00
2018-02-10T02:20:11.390Z,0.00
2018-02-10T02:21:11.383Z,0.00
2018-02-10T02:22:11.375Z,0.00
2018-02-10T02:23:11.367Z,0.00
2018-02-10T02:24:11.354Z,0.00
2018-02-10T02:25:11.344Z,0.00
2018-02-10T02:26:11.344Z,0.00
2018-02-10T02:27:11.328Z,0.00
2018-02-10T02:28:11.327Z,0.00
2018-02-10T02:29:11.313Z,0.00
2018-02-10T02:30:11.305Z,0.00
2018-02-10T02:31:11.306Z,0.00
2018-02-10T02:32:11.296Z,0.00
2018-02-10T02:33:11.289Z,0.00
2018-02-10T02:34:11.274Z,0.00
2018-02-10T02:35:11.268Z,0.00
2018-02-10T02:36:11.265Z,0.00
2018-02-10T02:37:11.258Z,0.00
2018-02-10T02:38:11.250Z,0.00
2018-02-10T02:39:11.242Z,0.00
2018-02-10T02:40:11.238Z,0.00
2018-02-10T02:41:11.218Z,0.00
2018-02-10T02:42:11.212Z,0.00
2018-02-10T02:43:11.203Z,0.00
2018-02-10T02:44:11.197Z,0.00
2018-02-10T02:45:11.196Z,0.00
2018-02-10T02:46:11.182Z,0.00
2018-02-10T02:47:11.180Z,0.00
2018-02-10T02:48:11.173Z,0.00
2018-02-10T02:49:11.164Z,0.00
2018-02-10T02:50:11.158Z,0.00
2018-02-10T02:51:11.141Z,0.00
2018-02-10T02:52:11.138Z,0.00
2018-02-10T02:53:11.134Z,0.00
2018-02-10T02:54:11.120Z,0.00
2018-02-10T02:55:11.111Z,0.00
2018-02-10T02:56:11.104Z,0.00
2018-02-10T02:57:11.104Z,0.00
2018-02-10T02:58:11.096Z,0.00
2018-02-10T02:59:11.088Z,0.00
2018-02-10T03:00:11.080Z,0.00
2018-02-10T03:01:11.066Z,0.00
2018-02-10T03:02:11.057Z,0.00
2018-02-10T03:03:11.050Z,0.00
2018-02-10T03:04:11.042Z,0.00
2018-02-10T03:05:11.038Z,0.00
2018-02-10T03:06:11.027Z,0.00
2018-02-10T03:07:11.021Z,0.00
2018-02-10T03:08:11.013Z,0.00
2018-02-10T03:09:11.004Z,0.00
2018-02-10T03:10:11.004Z,0.00
2018-02-10T03:11:10.988Z,0.00
2018-02-10T03:12:10.980Z,0.00
2018-02-10T03:13:10.973Z,0.00
2018-02-10T03:14:10.965Z,0.00
2018-02-10T03:15:10.957Z,0.00
2018-02-10T03:16:10.950Z,0.00
2018-02-10T03:17:10.952Z,0.00
2018-02-10T03:18:10.936Z,0.00
2018-02-10T03:19:10.935Z,0.00
2018-02-10T03:20:10.919Z,0.00
2018-02-10T03:21:10.915Z,0.00
2018-02-10T03:22:10.905Z,0.00
2018-02-10T03:23:10.903Z,0.00
2018-02-10T03:24:10.895Z,0.00
2018-02-10T03:25:10.881Z,0.00
2018-02-10T03:26:10.874Z,0.00
2018-02-10T03:27:10.866Z,0.00
2018-02-10T03:28:10.865Z,0.00
2018-02-10T03:29:10.851Z,0.00
2018-02-10T03:30:10.850Z,0.00
2018-02-10T03:31:10.843Z,0.00
2018-02-10T03:32:10.835Z,0.00
2018-02-10T03:33:10.830Z,0.00
2018-02-10T03:34:10.814Z,0.00
2018-02-10T03:35:10.804Z,0.00
2018-02-10T03:36:10.798Z,0.00
2018-02-10T03:37:10.790Z,0.00
2018-02-10T03:38:10.783Z,0.00
2018-02-10T03:39:10.775Z,0.00
2018-02-10T03:40:10.774Z,0.00
2018-02-10T03:41:10.760Z,0.00
2018-02-10T03:42:10.754Z,0.00
2018-02-10T03:43:10.752Z,0.00
2018-02-10T03:44:10.745Z,0.00
2018-02-10T03:45:10.737Z,0.00
2018-02-10T03:46:10.723Z,0.00
2018-02-10T03:47:10.722Z,0.00
2018-02-10T03:48:10.708Z,0.00
2018-02-10T03:49:10.700Z,0.00
2018-02-10T03:50:10.693Z,0.00
2018-02-10T03:51:10.692Z,0.00
2018-02-10T03:52:10.684Z,0.00
2018-02-10T03:53:10.677Z,0.00
2018-02-10T03:54:10.670Z,0.00
2018-02-10T03:55:10.654Z,0.00
2018-02-10T03:56:10.654Z,0.00
2018-02-10T03:57:10.643Z,0.00
2018-02-10T03:58:10.634Z,0.00
2018-02-10T03:59:10.625Z,0.00
2018-02-10T04:00:10.618Z,0.00
2018-02-10T04:01:10.618Z,0.00
2018-02-10T04:02:10.603Z,0.00
2018-02-10T04:03:10.602Z,0.00
2018-02-10T04:04:10.588Z,0.00
2018-02-10T04:05:10.593Z,0.00
2018-02-10T04:06:10.572Z,0.00
2018-02-10T04:07:10.572Z,4.00
2018-02-10T04:08:10.565Z,0.00
2018-02-10T04:09:10.558Z,0.00
2018-02-10T04:10:10.550Z,0.00
2018-02-10T04:11:10.536Z,0.00
2018-02-10T04:12:10.535Z,0.00
2018-02-10T04:13:10.528Z,0.00
2018-02-10T04:14:10.520Z,0.00
2018-02-10T04:15:10.505Z,0.00
2018-02-10T04:16:10.497Z,0.00
2018-02-10T04:17:10.497Z,0.00
2018-02-10T04:18:10.490Z,0.00
2018-02-10T04:19:10.475Z,0.00
2018-02-10T04:20:10.475Z,0.00
2018-02-10T04:21:10.460Z,0.00
2018-02-10T04:22:10.454Z,0.00
2018-02-10T04:23:10.452Z,0.00
2018-02-10T04:24:10.438Z,0.00
2018-02-10T04:25:10.431Z,0.00
2018-02-10T04:26:10.425Z,0.00
2018-02-10T04:27:10.416Z,0.00
2018-02-10T04:28:10.414Z,0.00
2018-02-10T04:29:10.407Z,0.00
2018-02-10T04:30:10.400Z,0.00
2018-02-10T04:31:10.392Z,0.00
2018-02-10T04:32:10.377Z,0.00
2018-02-10T04:33:10.371Z,0.00
2018-02-10T04:34:10.370Z,0.00
2018-02-10T04:35:10.362Z,0.00
2018-02-10T04:36:10.355Z,0.00
2018-02-10T04:37:10.342Z,0.00
2018-02-10T04:38:10.334Z,0.00
2018-02-10T04:39:10.333Z,0.00
2018-02-10T04:40:10.319Z,0.00
2018-02-10T04:41:10.318Z,0.00
2018-02-10T04:42:10.303Z,0.00
2018-02-10T04:43:10.303Z,0.00
2018-02-10T04:44:10.288Z,0.00
2018-02-10T04:45:10.281Z,0.00
2018-02-10T04:46:10.281Z,0.00
2018-02-10T04:47:10.266Z,0.00
2018-02-10T04:48:10.259Z,0.00
2018-02-10T04:49:10.258Z,0.00
2018-02-10T04:50:10.252Z,0.00
2018-02-10T04:51:10.243Z,0.00
2018-02-10T04:52:10.234Z,0.00
2018-02-10T04:53:10.229Z,0.00
2018-02-10T04:54:10.214Z,0.00
2018-02-10T04:55:10.206Z,0.00
2018-02-10T04:56:10.206Z,0.00
2018-02-10T04:57:10.192Z,0.00
2018-02-10T04:58:10.192Z,0.00
2018-02-10T04:59:10.185Z,0.00
2018-02-10T05:00:10.182Z,0.00
2018-02-10T05:01:10.169Z,0.00
2018-02-10T05:02:10.161Z,0.00
2018-02-10T05:03:10.154Z,0.00
2018-02-10T05:04:10.140Z,0.00
2018-02-10T05:05:10.133Z,0.00
2018-02-10T05:06:10.132Z,0.00
2018-02-10T05:07:10.125Z,0.00
2018-02-10T05:08:10.117Z,0.00
2018-02-10T05:09:10.102Z,0.00
2018-02-10T05:10:10.104Z,0.00
2018-02-10T05:11:10.088Z,0.00
2018-02-10T05:12:10.080Z,0.00
2018-02-10T05:13:10.073Z,0.00
2018-02-10T05:14:10.068Z,0.00
2018-02-10T05:15:10.066Z,0.00
2018-02-10T05:16:10.059Z,0.00
2018-02-10T05:17:10.044Z,0.00
2018-02-10T05:18:10.044Z,0.00
2018-02-10T05:19:10.028Z,0.00
2018-02-10T05:20:10.029Z,0.00
2018-02-10T05:21:10.014Z,0.00
2018-02-10T05:22:10.014Z,0.00
2018-02-10T05:23:09.998Z,0.00
2018-02-10T05:24:09.998Z,0.00
2018-02-10T05:25:09.984Z,0.00
2018-02-10T05:26:09.986Z,0.00
2018-02-10T05:27:09.968Z,0.00
2018-02-10T05:28:43.170Z,0.00
2018-02-10T05:29:09.954Z,0.00
2018-02-10T05:30:09.954Z,0.00
2018-02-10T05:31:09.946Z,0.00
2018-02-10T05:32:09.933Z,0.00
2018-02-10T05:33:09.925Z,0.00
2018-02-10T05:34:09.925Z,0.00
2018-02-10T05:35:09.909Z,0.00
2018-02-10T05:36:09.910Z,0.00
2018-02-10T05:37:09.895Z,0.00
2018-02-10T05:38:09.894Z,0.00
2018-02-10T05:39:09.880Z,0.00
2018-02-10T05:40:09.872Z,0.00
2018-02-10T05:41:09.873Z,0.00
2018-02-10T05:42:09.858Z,0.00
2018-02-10T05:43:09.850Z,0.00
2018-02-10T05:44:09.843Z,0.00
2018-02-10T05:45:09.836Z,0.00
2018-02-10T05:46:09.836Z,0.00
2018-02-10T05:47:09.828Z,0.00
2018-02-10T05:48:09.821Z,0.00
2018-02-10T05:49:09.813Z,0.00
2018-02-10T05:50:09.807Z,0.00
2018-02-10T05:51:09.799Z,0.00
2018-02-10T05:52:09.784Z,0.00
2018-02-10T05:53:09.784Z,0.00
2018-02-10T05:54:09.777Z,0.00
2018-02-10T05:55:09.762Z,0.00
2018-02-10T05:56:09.756Z,0.00
2018-02-10T05:57:09.748Z,0.00
2018-02-10T05:58:09.749Z,0.00
2018-02-10T05:59:09.731Z,0.00
2018-02-10T06:00:09.732Z,0.00
2018-02-10T06:01:09.725Z,0.00
2018-02-10T06:02:09.718Z,0.00
2018-02-10T06:03:09.710Z,0.00
2018-02-10T06:04:09.702Z,0.00
2018-02-10T06:05:09.689Z,0.00
2018-02-10T06:06:09.681Z,4.00
2018-02-10T06:07:09.680Z,4.00
2018-02-10T06:08:09.673Z,0.00
2018-02-10T06:09:09.666Z,4.00
2018-02-10T06:10:09.659Z,4.00
2018-02-10T06:11:09.650Z,0.00
2018-02-10T06:12:09.644Z,4.00
2018-02-10T06:13:09.636Z,4.00
2018-02-10T06:14:09.622Z,4.00
2018-02-10T06:15:09.615Z,8.00
2018-02-10T06:16:09.606Z,8.00
2018-02-10T06:17:09.606Z,8.00
2018-02-10T06:18:09.592Z,12.00
2018-02-10T06:19:09.590Z,12.00
2018-02-10T06:20:09.583Z,12.00
2018-02-10T06:21:09.576Z,12.00
2018-02-10T06:22:09.562Z,16.00
2018-02-10T06:23:09.554Z,16.00
2018-02-10T06:24:09.553Z,20.00
2018-02-10T06:25:09.539Z,20.00
2018-02-10T06:26:09.540Z,24.00
2018-02-10T06:27:09.532Z,28.00
2018-02-10T06:28:09.517Z,32.00
2018-02-10T06:29:09.518Z,32.00
2018-02-10T06:30:09.502Z,36.00
2018-02-10T06:31:09.502Z,40.00
2018-02-10T06:32:09.495Z,40.00
2018-02-10T06:33:09.487Z,44.00
2018-02-10T06:34:09.480Z,48.00
2018-02-10T06:35:09.472Z,52.00
2018-02-10T06:36:09.458Z,52.00
2018-02-10T06:37:09.458Z,60.00
2018-02-10T06:38:09.451Z,64.00
2018-02-10T06:39:09.435Z,68.00
2018-02-10T06:40:09.429Z,72.00
2018-02-10T06:41:09.422Z,76.00
2018-02-10T06:42:09.422Z,84.00
2018-02-10T06:43:09.414Z,88.00
2018-02-10T06:44:09.407Z,96.00
2018-02-10T06:45:09.400Z,100.00
2018-02-10T06:46:09.390Z,108.00
2018-02-10T06:47:09.384Z,120.00
2018-02-10T06:48:09.369Z,128.00
2018-02-10T06:49:09.370Z,136.00
2018-02-10T06:50:09.362Z,148.00
2018-02-10T06:51:09.346Z,156.00
2018-02-10T06:52:09.347Z,168.00
2018-02-10T06:53:09.333Z,180.00
2018-02-10T06:54:09.326Z,192.00
2018-02-10T06:55:09.318Z,200.00
2018-02-10T06:56:09.310Z,208.00
2018-02-10T06:57:09.304Z,224.00
2018-02-10T06:58:09.298Z,232.00
2018-02-10T06:59:09.295Z,240.00
2018-02-10T07:00:09.281Z,248.00
2018-02-10T07:01:09.274Z,256.00
2018-02-10T07:02:09.267Z,260.00
2018-02-10T07:03:09.267Z,268.00
2018-02-10T07:04:09.252Z,280.00
2018-02-10T07:05:09.252Z,292.00
2018-02-10T07:06:09.245Z,300.00
2018-02-10T07:07:09.237Z,308.00
2018-02-10T07:08:09.223Z,320.00
2018-02-10T07:09:09.216Z,340.00
2018-02-10T07:10:09.215Z,364.00
2018-02-10T07:11:09.200Z,384.00
2018-02-10T07:12:09.201Z,404.00
2018-02-10T07:13:09.194Z,432.00
2018-02-10T07:14:09.179Z,468.00
2018-02-10T07:15:09.171Z,516.00
2018-02-10T07:16:09.171Z,568.00
2018-02-10T07:17:09.164Z,604.00
2018-02-10T07:18:09.151Z,632.00
2018-02-10T07:19:09.147Z,656.00
2018-02-10T07:20:09.141Z,676.00
2018-02-10T07:21:09.134Z,700.00
2018-02-10T07:22:09.124Z,728.00
2018-02-10T07:23:09.121Z,760.00
2018-02-10T07:24:09.105Z,784.00
2018-02-10T07:25:09.106Z,796.00
2018-02-10T07:26:09.092Z,800.00
2018-02-10T07:27:09.091Z,808.00
2018-02-10T07:28:09.076Z,816.00
2018-02-10T07:29:09.069Z,832.00
2018-02-10T07:30:09.062Z,852.00
2018-02-10T07:31:09.054Z,876.00
2018-02-10T07:32:09.055Z,908.00
2018-02-10T07:33:09.041Z,944.00
2018-02-10T07:34:09.034Z,988.00
2018-02-10T07:35:09.026Z,1028.00
2018-02-10T07:36:09.027Z,1060.00
2018-02-10T07:37:09.012Z,1088.00
2018-02-10T07:38:09.005Z,1116.00
2018-02-10T07:39:08.997Z,1144.00
2018-02-10T07:40:08.991Z,1224.00
2018-02-10T07:41:08.991Z,1312.00
2018-02-10T07:42:08.984Z,1376.00
2018-02-10T07:43:08.975Z,1424.00
2018-02-10T07:44:08.961Z,1476.00
2018-02-10T07:45:08.962Z,1536.00
2018-02-10T07:46:08.955Z,1600.00
2018-02-10T07:47:08.946Z,1672.00
2018-02-10T07:48:08.932Z,1724.00
2018-02-10T07:49:08.925Z,1780.00
2018-02-10T07:50:08.926Z,1812.00
2018-02-10T07:51:08.910Z,1824.00
2018-02-10T07:52:08.910Z,1816.00
2018-02-10T07:53:08.898Z,1780.00
2018-02-10T07:54:08.897Z,1728.00
2018-02-10T07:55:08.890Z,1692.00
2018-02-10T07:56:08.883Z,1664.00
2018-02-10T07:57:08.870Z,1624.00
2018-02-10T07:58:08.862Z,1556.00
2018-02-10T07:59:08.861Z,1472.00
2018-02-10T08:00:08.846Z,1392.00
2018-02-10T08:01:08.840Z,1312.00
2018-02-10T08:02:08.833Z,1244.00
2018-02-10T08:03:08.825Z,1188.00
2018-02-10T08:04:08.819Z,1160.00
2018-02-10T08:05:08.811Z,1160.00
2018-02-10T08:06:08.808Z,1176.00
2018-02-10T08:07:08.796Z,1204.00
2018-02-10T08:08:08.790Z,1248.00
2018-02-10T08:09:08.783Z,1304.00
2018-02-10T08:10:08.776Z,1356.00
2018-02-10T08:11:08.776Z,1404.00
2018-02-10T08:12:08.770Z,1464.00
2018-02-10T08:13:08.761Z,1536.00
2018-02-10T08:14:08.748Z,1612.00
2018-02-10T08:15:08.763Z,1688.00
2018-02-10T08:16:08.742Z,1756.00
2018-02-10T08:17:08.726Z,1812.00
2018-02-10T08:18:08.720Z,1864.00
2018-02-10T08:19:08.718Z,1936.00
2018-02-10T08:20:08.705Z,2012.00
2018-02-10T08:21:08.698Z,2128.00
2018-02-10T08:22:08.697Z,2252.00
2018-02-10T08:23:08.689Z,2400.00
2018-02-10T08:24:08.682Z,2508.00
2018-02-10T08:25:08.669Z,2572.00
2018-02-10T08:26:08.661Z,2640.00
2018-02-10T08:27:08.655Z,2720.00
2018-02-10T08:28:08.650Z,2772.00
2018-02-10T08:29:08.648Z,2852.00
2018-02-10T08:30:08.635Z,2976.00
2018-02-10T08:31:08.633Z,3104.00
2018-02-10T08:32:08.628Z,3224.00
2018-02-10T08:33:08.613Z,3292.00
2018-02-10T08:34:08.611Z,3324.00
2018-02-10T08:35:08.600Z,3312.00
2018-02-10T08:36:08.600Z,3264.00
2018-02-10T08:37:08.630Z,3212.00
2018-02-10T08:38:08.580Z,3088.00
2018-02-10T08:39:08.573Z,2960.00
2018-02-10T08:40:08.566Z,2840.00
2018-02-10T08:41:08.561Z,2788.00
2018-02-10T08:42:08.561Z,2776.00
2018-02-10T08:43:08.547Z,2732.00
2018-02-10T08:44:08.548Z,2760.00
2018-02-10T08:45:08.536Z,2788.00
2018-02-10T08:46:08.534Z,2812.00
2018-02-10T08:47:08.571Z,2832.00
2018-02-10T08:48:08.513Z,2840.00
2018-02-10T08:49:08.515Z,2808.00
2018-02-10T08:50:08.508Z,2716.00
2018-02-10T08:51:08.494Z,2540.00
2018-02-10T08:52:08.487Z,2332.00
2018-02-10T08:53:08.488Z,2152.00
2018-02-10T08:54:08.482Z,2044.00
2018-02-10T08:55:08.474Z,1988.00
2018-02-10T08:56:08.467Z,1980.00
2018-02-10T08:57:08.454Z,1996.00
2018-02-10T08:58:08.447Z,2016.00
2018-02-10T08:59:08.439Z,2028.00
2018-02-10T09:00:08.440Z,2068.00
2018-02-10T09:01:08.434Z,2116.00
2018-02-10T09:02:08.428Z,2128.00
2018-02-10T09:03:08.420Z,2124.00
2018-02-10T09:04:08.414Z,2108.00
2018-02-10T09:05:08.407Z,2072.00
2018-02-10T09:06:08.394Z,1992.00
2018-02-10T09:07:08.392Z,1888.00
2018-02-10T09:08:08.386Z,1792.00
2018-02-10T09:09:08.375Z,1744.00
2018-02-10T09:10:08.369Z,1784.00
2018-02-10T09:11:08.359Z,1888.00
2018-02-10T09:12:08.362Z,2020.00
2018-02-10T09:13:08.353Z,2164.00
2018-02-10T09:14:08.346Z,2328.00
2018-02-10T09:15:08.339Z,2508.00
2018-02-10T09:16:08.325Z,2688.00
2018-02-10T09:17:08.326Z,2924.00
2018-02-10T09:18:08.312Z,3172.00
2018-02-10T09:19:08.304Z,3484.00
2018-02-10T09:20:08.308Z,3936.00
2018-02-10T09:21:08.291Z,4468.00
2018-02-10T09:22:08.285Z,4892.00
2018-02-10T09:23:08.285Z,5372.00
2018-02-10T09:24:08.270Z,6068.00
2018-02-10T09:25:08.271Z,6764.00
2018-02-10T09:26:08.257Z,7240.00
2018-02-10T09:27:08.258Z,7412.00
2018-02-10T09:28:08.257Z,7048.00
2018-02-10T09:29:08.246Z,6456.00
2018-02-10T09:30:08.232Z,5948.00
2018-02-10T09:31:08.226Z,5760.00
2018-02-10T09:32:08.230Z,5596.00
2018-02-10T09:33:08.214Z,5524.00
2018-02-10T09:34:08.215Z,5464.00
2018-02-10T09:35:08.203Z,5404.00
2018-02-10T09:36:08.203Z,5392.00
2018-02-10T09:37:08.197Z,5300.00
2018-02-10T09:38:08.191Z,5100.00
2018-02-10T09:39:08.185Z,5060.00
2018-02-10T09:40:08.179Z,5056.00
2018-02-10T09:41:08.165Z,5128.00
2018-02-10T09:42:08.168Z,5304.00
2018-02-10T09:43:08.161Z,5488.00
2018-02-10T09:44:08.155Z,5688.00
2018-02-10T09:45:08.150Z,5804.00
2018-02-10T09:46:08.136Z,5868.00
2018-02-10T09:47:08.137Z,5956.00
2018-02-10T09:48:08.132Z,6000.00
2018-02-10T09:49:08.119Z,6032.00
2018-02-10T09:50:08.121Z,6148.00
2018-02-10T09:51:08.120Z,6196.00
2018-02-10T09:52:08.129Z,6244.00
2018-02-10T09:53:08.397Z,6392.00
2018-02-10T09:54:08.090Z,6664.00
2018-02-10T09:55:08.092Z,6996.00
2018-02-10T09:56:08.086Z,7312.00
2018-02-10T09:57:08.075Z,7584.00
2018-02-10T09:58:08.069Z,7712.00
2018-02-10T09:59:08.070Z,7684.00
2018-02-10T10:00:08.064Z,7552.00
2018-02-10T10:01:08.059Z,7440.00
2018-02-10T10:02:08.048Z,7520.00
2018-02-10T10:03:08.048Z,7588.00
2018-02-10T10:04:08.036Z,7844.00
2018-02-10T10:05:08.039Z,8032.00
2018-02-10T10:06:08.036Z,8256.00
2018-02-10T10:07:08.028Z,8352.00
2018-02-10T10:08:08.022Z,8260.00
2018-02-10T10:09:08.010Z,8180.00
2018-02-10T10:10:08.012Z,8168.00
2018-02-10T10:11:08.007Z,8012.00
2018-02-10T10:12:07.995Z,7772.00
2018-02-10T10:13:07.989Z,7740.00
2018-02-10T10:14:07.989Z,7836.00
2018-02-10T10:15:07.986Z,8108.00
2018-02-10T10:16:07.982Z,8456.00
2018-02-10T10:17:07.976Z,9032.00
2018-02-10T10:18:07.971Z,9928.00
2018-02-10T10:19:07.970Z,10404.00
2018-02-10T10:20:07.954Z,9512.00
2018-02-10T10:21:07.956Z,8452.00
2018-02-10T10:22:07.951Z,7520.00
2018-02-10T10:23:07.938Z,6876.00
2018-02-10T10:24:07.933Z,6336.00
2018-02-10T10:25:07.936Z,5916.00
2018-02-10T10:26:07.923Z,5576.00
2018-02-10T10:27:07.917Z,5564.00
2018-02-10T10:28:07.931Z,5436.00
2018-02-10T10:29:07.918Z,5264.00
2018-02-10T10:30:07.906Z,5304.00
2018-02-10T10:31:07.902Z,5596.00
2018-02-10T10:32:07.890Z,5944.00
2018-02-10T10:33:07.892Z,5968.00
2018-02-10T10:34:07.879Z,5844.00
2018-02-10T10:35:07.881Z,5772.00
2018-02-10T10:36:07.876Z,5824.00
2018-02-10T10:37:07.864Z,5808.00
2018-02-10T10:38:07.864Z,5628.00
2018-02-10T10:39:07.852Z,5428.00
2018-02-10T10:40:07.846Z,5244.00
2018-02-10T10:41:07.848Z,5080.00
2018-02-10T10:42:07.843Z,4980.00
2018-02-10T10:43:07.836Z,4992.00
2018-02-10T10:44:07.831Z,5076.00
2018-02-10T10:45:07.826Z,5180.00
2018-02-10T10:46:07.813Z,5236.00
2018-02-10T10:47:07.806Z,5200.00
2018-02-10T10:48:07.801Z,5088.00
2018-02-10T10:49:07.796Z,5016.00
2018-02-10T10:50:07.797Z,4984.00
2018-02-10T10:51:07.791Z,5000.00
2018-02-10T10:52:07.778Z,5088.00
2018-02-10T10:53:07.773Z,5104.00
2018-02-10T10:54:07.768Z,5060.00
2018-02-10T10:55:07.761Z,5040.00
2018-02-10T10:56:07.763Z,5036.00
2018-02-10T10:57:07.757Z,5068.00
2018-02-10T10:58:07.746Z,5176.00
2018-02-10T10:59:07.746Z,5436.00
2018-02-10T11:00:07.740Z,5784.00
2018-02-10T11:01:07.734Z,6308.00
2018-02-10T11:02:07.722Z,6900.00
2018-02-10T11:03:07.716Z,7732.00
2018-02-10T11:04:07.711Z,7872.00
2018-02-10T11:05:07.707Z,7828.00
2018-02-10T11:06:07.700Z,7336.00
2018-02-10T11:07:07.701Z,7080.00
2018-02-10T11:08:07.689Z,6992.00
2018-02-10T11:09:07.684Z,6476.00
2018-02-10T11:10:07.685Z,5592.00
2018-02-10T11:11:07.675Z,5008.00
2018-02-10T11:12:07.668Z,4628.00
2018-02-10T11:13:07.669Z,4336.00
2018-02-10T11:14:07.667Z,4124.00
2018-02-10T11:15:07.658Z,3940.00
2018-02-10T11:16:07.645Z,3796.00
2018-02-10T11:17:07.640Z,3688.00
2018-02-10T11:18:07.635Z,3596.00
2018-02-10T11:19:07.637Z,3508.00
2018-02-10T11:20:07.626Z,3428.00
2018-02-10T11:21:07.626Z,3364.00
2018-02-10T11:22:07.614Z,3320.00
2018-02-10T11:23:07.608Z,3272.00
2018-02-10T11:24:07.602Z,3212.00
2018-02-10T11:25:07.604Z,3144.00
2018-02-10T11:26:07.598Z,3076.00
2018-02-10T11:27:07.592Z,3004.00
2018-02-10T11:28:07.586Z,2940.00
2018-02-10T11:29:07.578Z,2880.00
2018-02-10T11:30:07.569Z,2820.00
2018-02-10T11:31:07.570Z,2780.00
2018-02-10T11:32:07.558Z,2756.00
2018-02-10T11:33:07.552Z,2736.00
2018-02-10T11:34:07.545Z,2716.00
2018-02-10T11:35:07.547Z,2724.00
2018-02-10T11:36:07.541Z,2732.00
2018-02-10T11:37:07.530Z,2716.00
2018-02-10T11:38:07.523Z,2688.00
2018-02-10T11:39:07.517Z,2656.00
2018-02-10T11:40:07.519Z,2608.00
2018-02-10T11:41:07.506Z,2564.00
2018-02-10T11:42:07.502Z,2524.00
2018-02-10T11:43:07.502Z,2508.00
2018-02-10T11:44:07.495Z,2500.00
2018-02-10T11:45:07.482Z,2488.00
2018-02-10T11:46:07.484Z,2488.00
2018-02-10T11:47:07.478Z,2472.00
2018-02-10T11:48:07.465Z,2444.00
2018-02-10T11:49:07.475Z,2428.00
2018-02-10T11:50:07.454Z,2432.00
2018-02-10T11:51:07.447Z,2436.00
2018-02-10T11:52:07.441Z,2428.00
2018-02-10T11:53:07.435Z,2424.00
2018-02-10T11:54:07.438Z,2416.00
2018-02-10T11:55:07.431Z,2408.00
2018-02-10T11:56:07.425Z,2408.00
2018-02-10T11:57:07.412Z,2412.00
2018-02-10T11:58:07.414Z,2424.00
2018-02-10T11:59:07.406Z,2396.00
2018-02-10T12:00:07.401Z,2376.00
2018-02-10T12:01:07.386Z,2372.00
2018-02-10T12:02:07.381Z,2388.00
2018-02-10T12:03:07.381Z,2408.00
2018-02-10T12:04:07.375Z,2440.00
2018-02-10T12:05:07.362Z,2448.00
2018-02-10T12:06:07.360Z,2432.00
2018-02-10T12:07:07.349Z,2424.00
2018-02-10T12:08:07.352Z,2412.00
2018-02-10T12:09:07.337Z,2384.00
2018-02-10T12:10:07.342Z,2348.00
2018-02-10T12:11:07.324Z,2288.00
2018-02-10T12:12:07.325Z,2220.00
2018-02-10T12:13:07.319Z,2160.00
2018-02-10T12:14:07.314Z,2112.00
2018-02-10T12:15:07.307Z,2068.00
2018-02-10T12:16:07.293Z,2032.00
2018-02-10T12:17:07.295Z,2004.00
2018-02-10T12:18:07.289Z,1980.00
2018-02-10T12:19:07.275Z,1940.00
2018-02-10T12:20:07.276Z,1900.00
2018-02-10T12:21:07.271Z,1876.00
2018-02-10T12:22:07.265Z,1860.00
2018-02-10T12:23:07.257Z,1852.00
2018-02-10T12:24:07.252Z,1840.00
2018-02-10T12:25:07.247Z,1832.00
2018-02-10T12:26:07.240Z,1828.00
2018-02-10T12:27:07.234Z,1816.00
2018-02-10T12:28:07.229Z,1812.00
2018-02-10T12:29:07.222Z,1800.00
2018-02-10T12:30:07.210Z,1792.00
2018-02-10T12:31:07.208Z,1808.00
2018-02-10T12:32:07.204Z,1844.00
2018-02-10T12:33:07.198Z,1892.00
2018-02-10T12:34:07.192Z,1956.00
2018-02-10T12:35:07.185Z,2032.00
2018-02-10T12:36:07.173Z,2092.00
2018-02-10T12:37:07.173Z,2112.00
2018-02-10T12:38:07.167Z,2128.00
2018-02-10T12:39:07.154Z,2128.00
2018-02-10T12:40:07.155Z,2100.00
2018-02-10T12:41:07.149Z,2108.00
2018-02-10T12:42:07.136Z,2144.00
2018-02-10T12:43:07.128Z,2168.00